sensor_id;sensor_type;location;lat;lon;timestamp;temperature;humidity
4505;DHT22;2265;48.794;9.520;2023-01-19T00:00:47;-0.90;98.00
4505;DHT22;2265;48.794;9.520;2023-01-19T00:03:14;-0.80;98.00
4505;DHT22;2265;48.794;9.520;2023-01-19T00:05:43;-0.70;98.00
4505;DHT22;2265;48.794;9.520;2023-01-19T00:08:10;-0.80;98.00
4505;DHT22;2265;48.794;9.520;2023-01-19T00:10:41;-0.80;98.00
4505;DHT22;2265;48.794;9.520;2023-01-19T00:13:08;-0.90;98.00
4505;DHT22;2265;48.794;9.520;2023-01-19T00:15:36;-1.00;98.00
4505;DHT22;2265;48.794;9.520;2023-01-19T00:18:04;-0.90;98.00
4505;DHT22;2265;48.794;9.520;2023-01-19T00:20:31;-1.00;98.00
4505;DHT22;2265;48.794;9.520;2023-01-19T00:23:00;-1.00;98.00
4505;DHT22;2265;48.794;9.520;2023-01-19T00:25:27;-1.00;98.00
4505;DHT22;2265;48.794;9.520;2023-01-19T00:27:54;-1.10;98.00
4505;DHT22;2265;48.794;9.520;2023-01-19T00:30:21;-1.10;98.00
4505;DHT22;2265;48.794;9.520;2023-01-19T00:32:50;-1.10;98.00
4505;DHT22;2265;48.794;9.520;2023-01-19T00:35:17;-1.10;98.00
4505;DHT22;2265;48.794;9.520;2023-01-19T00:37:45;-1.10;98.00
4505;DHT22;2265;48.794;9.520;2023-01-19T00:40:12;-1.10;98.00
4505;DHT22;2265;48.794;9.520;2023-01-19T00:42:39;-1.10;98.00
4505;DHT22;2265;48.794;9.520;2023-01-19T00:45:10;-1.20;98.00
4505;DHT22;2265;48.794;9.520;2023-01-19T00:47:38;-1.10;98.00
4505;DHT22;2265;48.794;9.520;2023-01-19T00:50:08;-1.20;98.00
4505;DHT22;2265;48.794;9.520;2023-01-19T00:52:36;-1.10;98.00
4505;DHT22;2265;48.794;9.520;2023-01-19T00:55:06;-1.20;98.00
4505;DHT22;2265;48.794;9.520;2023-01-19T00:57:33;-1.20;98.00
4505;DHT22;2265;48.794;9.520;2023-01-19T01:00:00;-1.30;98.00
4505;DHT22;2265;48.794;9.520;2023-01-19T01:02:30;-1.30;98.00
4505;DHT22;2265;48.794;9.520;2023-01-19T01:04:57;-1.20;98.00
4505;DHT22;2265;48.794;9.520;2023-01-19T01:07:29;-1.30;98.00
4505;DHT22;2265;48.794;9.520;2023-01-19T01:09:59;-1.20;98.00
4505;DHT22;2265;48.794;9.520;2023-01-19T01:12:26;-1.20;98.00
4505;DHT22;2265;48.794;9.520;2023-01-19T01:14:54;-1.20;98.00
4505;DHT22;2265;48.794;9.520;2023-01-19T01:17:22;-1.30;98.00
4505;DHT22;2265;48.794;9.520;2023-01-19T01:19:49;-1.40;98.00
4505;DHT22;2265;48.794;9.520;2023-01-19T01:22:17;-1.30;98.00
4505;DHT22;2265;48.794;9.520;2023-01-19T01:24:45;-1.40;98.00
4505;DHT22;2265;48.794;9.520;2023-01-19T01:27:12;-1.40;98.00
4505;DHT22;2265;48.794;9.520;2023-01-19T01:29:39;-1.40;98.00
4505;DHT22;2265;48.794;9.520;2023-01-19T01:32:11;-1.40;98.00
4505;DHT22;2265;48.794;9.520;2023-01-19T01:34:39;-1.40;98.00
4505;DHT22;2265;48.794;9.520;2023-01-19T01:37:06;-1.30;98.00
4505;DHT22;2265;48.794;9.520;2023-01-19T01:39:33;-1.30;98.00
4505;DHT22;2265;48.794;9.520;2023-01-19T01:42:02;-1.30;98.00
4505;DHT22;2265;48.794;9.520;2023-01-19T01:44:44;-1.20;98.00
4505;DHT22;2265;48.794;9.520;2023-01-19T01:47:19;-1.30;98.00
4505;DHT22;2265;48.794;9.520;2023-01-19T01:49:50;-1.20;98.00
4505;DHT22;2265;48.794;9.520;2023-01-19T01:52:19;-1.30;98.00
4505;DHT22;2265;48.794;9.520;2023-01-19T01:54:49;-1.30;98.00
4505;DHT22;2265;48.794;9.520;2023-01-19T01:57:19;-1.30;98.00
4505;DHT22;2265;48.794;9.520;2023-01-19T01:59:47;-1.30;98.00
4505;DHT22;2265;48.794;9.520;2023-01-19T02:02:18;-1.20;98.00
4505;DHT22;2265;48.794;9.520;2023-01-19T02:05:06;-1.20;98.00
4505;DHT22;2265;48.794;9.520;2023-01-19T02:07:40;-1.10;98.00
4505;DHT22;2265;48.794;9.520;2023-01-19T02:10:26;-1.10;98.00
4505;DHT22;2265;48.794;9.520;2023-01-19T02:13:12;-1.00;98.00
4505;DHT22;2265;48.794;9.520;2023-01-19T02:15:47;-1.00;98.00
4505;DHT22;2265;48.794;9.520;2023-01-19T02:18:14;-0.90;98.00
4505;DHT22;2265;48.794;9.520;2023-01-19T02:20:46;-1.00;98.00
4505;DHT22;2265;48.794;9.520;2023-01-19T02:23:19;-1.00;98.00
4505;DHT22;2265;48.794;9.520;2023-01-19T02:25:50;-1.10;98.00
4505;DHT22;2265;48.794;9.520;2023-01-19T02:28:33;-1.20;98.00
4505;DHT22;2265;48.794;9.520;2023-01-19T02:31:00;-1.20;98.00
4505;DHT22;2265;48.794;9.520;2023-01-19T02:33:27;-1.10;98.00
4505;DHT22;2265;48.794;9.520;2023-01-19T02:35:57;-1.10;98.00
4505;DHT22;2265;48.794;9.520;2023-01-19T02:38:25;-1.10;98.00
4505;DHT22;2265;48.794;9.520;2023-01-19T02:40:54;-1.10;98.00
4505;DHT22;2265;48.794;9.520;2023-01-19T02:43:23;-1.10;98.00
4505;DHT22;2265;48.794;9.520;2023-01-19T02:45:52;-1.00;98.00
4505;DHT22;2265;48.794;9.520;2023-01-19T02:48:20;-0.80;98.00
4505;DHT22;2265;48.794;9.520;2023-01-19T02:50:49;-0.80;98.00
4505;DHT22;2265;48.794;9.520;2023-01-19T02:53:45;-0.80;98.00
4505;DHT22;2265;48.794;9.520;2023-01-19T02:56:49;-0.70;98.00
4505;DHT22;2265;48.794;9.520;2023-01-19T02:59:30;-0.50;98.00
4505;DHT22;2265;48.794;9.520;2023-01-19T03:02:20;-0.60;98.00
4505;DHT22;2265;48.794;9.520;2023-01-19T03:05:10;-0.50;98.00
4505;DHT22;2265;48.794;9.520;2023-01-19T03:07:48;-0.60;98.00
4505;DHT22;2265;48.794;9.520;2023-01-19T03:10:24;-0.40;98.00
4505;DHT22;2265;48.794;9.520;2023-01-19T03:12:57;-0.40;98.00
4505;DHT22;2265;48.794;9.520;2023-01-19T03:15:31;-0.40;98.00
4505;DHT22;2265;48.794;9.520;2023-01-19T03:18:01;-0.40;98.00
4505;DHT22;2265;48.794;9.520;2023-01-19T03:20:29;-0.50;98.00
4505;DHT22;2265;48.794;9.520;2023-01-19T03:23:00;-0.80;98.00
4505;DHT22;2265;48.794;9.520;2023-01-19T03:25:28;-0.80;98.00
4505;DHT22;2265;48.794;9.520;2023-01-19T03:27:56;-0.80;98.00
4505;DHT22;2265;48.794;9.520;2023-01-19T03:30:27;-0.90;98.00
4505;DHT22;2265;48.794;9.520;2023-01-19T03:33:00;-0.90;98.00
4505;DHT22;2265;48.794;9.520;2023-01-19T03:35:35;-0.80;98.00
4505;DHT22;2265;48.794;9.520;2023-01-19T03:38:04;-0.90;98.00
4505;DHT22;2265;48.794;9.520;2023-01-19T03:40:34;-0.90;98.00
4505;DHT22;2265;48.794;9.520;2023-01-19T03:43:02;-0.90;98.00
4505;DHT22;2265;48.794;9.520;2023-01-19T03:45:30;-0.90;98.00
4505;DHT22;2265;48.794;9.520;2023-01-19T03:48:00;-1.00;98.00
4505;DHT22;2265;48.794;9.520;2023-01-19T03:50:29;-0.90;98.00
4505;DHT22;2265;48.794;9.520;2023-01-19T03:53:03;-0.70;98.00
4505;DHT22;2265;48.794;9.520;2023-01-19T03:55:31;-0.70;98.00
4505;DHT22;2265;48.794;9.520;2023-01-19T03:58:01;-0.70;98.00
4505;DHT22;2265;48.794;9.520;2023-01-19T04:00:29;-0.70;98.00
4505;DHT22;2265;48.794;9.520;2023-01-19T04:02:56;-0.50;98.00
4505;DHT22;2265;48.794;9.520;2023-01-19T04:05:25;-0.60;98.00
4505;DHT22;2265;48.794;9.520;2023-01-19T04:07:52;-0.50;98.00
4505;DHT22;2265;48.794;9.520;2023-01-19T04:10:19;-0.50;98.00
4505;DHT22;2265;48.794;9.520;2023-01-19T04:12:47;-0.60;98.00
4505;DHT22;2265;48.794;9.520;2023-01-19T04:15:14;-0.70;98.00
4505;DHT22;2265;48.794;9.520;2023-01-19T04:17:43;-0.70;98.00
4505;DHT22;2265;48.794;9.520;2023-01-19T04:20:10;-0.60;98.00
4505;DHT22;2265;48.794;9.520;2023-01-19T04:22:38;-0.50;98.00
4505;DHT22;2265;48.794;9.520;2023-01-19T04:25:07;-0.50;98.00
4505;DHT22;2265;48.794;9.520;2023-01-19T04:27:34;-0.40;98.00
4505;DHT22;2265;48.794;9.520;2023-01-19T04:30:02;-0.50;98.00
4505;DHT22;2265;48.794;9.520;2023-01-19T04:32:30;-0.50;98.00
4505;DHT22;2265;48.794;9.520;2023-01-19T04:34:58;-0.50;98.00
4505;DHT22;2265;48.794;9.520;2023-01-19T04:37:25;-0.50;98.00
4505;DHT22;2265;48.794;9.520;2023-01-19T04:39:57;-0.60;98.00
4505;DHT22;2265;48.794;9.520;2023-01-19T04:42:24;-0.60;98.00
4505;DHT22;2265;48.794;9.520;2023-01-19T04:44:52;-0.60;98.00
4505;DHT22;2265;48.794;9.520;2023-01-19T04:47:19;-0.70;98.00
4505;DHT22;2265;48.794;9.520;2023-01-19T04:49:46;-0.70;98.00
4505;DHT22;2265;48.794;9.520;2023-01-19T04:52:13;-0.50;98.00
4505;DHT22;2265;48.794;9.520;2023-01-19T04:54:40;-0.50;98.00
4505;DHT22;2265;48.794;9.520;2023-01-19T04:57:11;-0.50;98.00
4505;DHT22;2265;48.794;9.520;2023-01-19T04:59:39;-0.50;98.00
4505;DHT22;2265;48.794;9.520;2023-01-19T05:02:06;-0.60;98.00
4505;DHT22;2265;48.794;9.520;2023-01-19T05:04:33;-0.60;98.00
4505;DHT22;2265;48.794;9.520;2023-01-19T05:07:00;-0.50;98.00
4505;DHT22;2265;48.794;9.520;2023-01-19T05:09:27;-0.50;98.00
4505;DHT22;2265;48.794;9.520;2023-01-19T05:11:54;-0.50;98.00
4505;DHT22;2265;48.794;9.520;2023-01-19T05:14:23;-0.50;98.00
4505;DHT22;2265;48.794;9.520;2023-01-19T05:16:50;-0.60;98.00
4505;DHT22;2265;48.794;9.520;2023-01-19T05:19:17;-0.60;98.00
4505;DHT22;2265;48.794;9.520;2023-01-19T05:21:44;-0.60;98.00
4505;DHT22;2265;48.794;9.520;2023-01-19T05:24:11;-0.70;98.00
4505;DHT22;2265;48.794;9.520;2023-01-19T05:26:38;-0.80;98.00
4505;DHT22;2265;48.794;9.520;2023-01-19T05:29:05;-0.70;98.00
4505;DHT22;2265;48.794;9.520;2023-01-19T05:31:34;-0.70;98.00
4505;DHT22;2265;48.794;9.520;2023-01-19T05:34:04;-0.80;98.00
4505;DHT22;2265;48.794;9.520;2023-01-19T05:36:31;-0.90;98.00
4505;DHT22;2265;48.794;9.520;2023-01-19T05:38:59;-0.70;98.00
4505;DHT22;2265;48.794;9.520;2023-01-19T05:41:25;-0.70;98.00
4505;DHT22;2265;48.794;9.520;2023-01-19T05:43:55;-0.80;98.00
4505;DHT22;2265;48.794;9.520;2023-01-19T05:46:22;-0.70;98.00
4505;DHT22;2265;48.794;9.520;2023-01-19T05:48:51;-0.60;98.00
4505;DHT22;2265;48.794;9.520;2023-01-19T05:51:18;-0.50;98.00
4505;DHT22;2265;48.794;9.520;2023-01-19T05:53:45;-0.50;98.00
4505;DHT22;2265;48.794;9.520;2023-01-19T05:56:12;-0.50;98.00
4505;DHT22;2265;48.794;9.520;2023-01-19T05:58:39;-0.50;98.00
4505;DHT22;2265;48.794;9.520;2023-01-19T06:01:07;-0.40;98.00
4505;DHT22;2265;48.794;9.520;2023-01-19T06:03:35;-0.40;98.00
4505;DHT22;2265;48.794;9.520;2023-01-19T06:06:05;-0.50;98.00
4505;DHT22;2265;48.794;9.520;2023-01-19T06:08:33;-0.60;98.00
4505;DHT22;2265;48.794;9.520;2023-01-19T06:11:00;-0.50;98.00
4505;DHT22;2265;48.794;9.520;2023-01-19T06:13:27;-0.60;98.00
4505;DHT22;2265;48.794;9.520;2023-01-19T06:15:58;-0.80;98.00
4505;DHT22;2265;48.794;9.520;2023-01-19T06:18:25;-0.80;98.00
4505;DHT22;2265;48.794;9.520;2023-01-19T06:20:52;-0.90;98.00
4505;DHT22;2265;48.794;9.520;2023-01-19T06:23:24;-1.00;98.00
4505;DHT22;2265;48.794;9.520;2023-01-19T06:25:52;-1.10;98.00
4505;DHT22;2265;48.794;9.520;2023-01-19T06:28:19;-1.10;98.00
4505;DHT22;2265;48.794;9.520;2023-01-19T06:30:47;-1.20;98.00
4505;DHT22;2265;48.794;9.520;2023-01-19T06:33:16;-1.20;98.00
4505;DHT22;2265;48.794;9.520;2023-01-19T06:35:47;-1.20;98.00
4505;DHT22;2265;48.794;9.520;2023-01-19T06:38:23;-1.10;98.00
4505;DHT22;2265;48.794;9.520;2023-01-19T06:40:52;-1.20;98.00
4505;DHT22;2265;48.794;9.520;2023-01-19T06:43:20;-1.20;98.00
4505;DHT22;2265;48.794;9.520;2023-01-19T06:45:47;-1.10;98.00
4505;DHT22;2265;48.794;9.520;2023-01-19T06:48:15;-1.00;98.00
4505;DHT22;2265;48.794;9.520;2023-01-19T06:50:44;-0.90;98.00
4505;DHT22;2265;48.794;9.520;2023-01-19T06:53:11;-0.90;98.00
4505;DHT22;2265;48.794;9.520;2023-01-19T06:55:40;-0.90;98.00
4505;DHT22;2265;48.794;9.520;2023-01-19T06:58:08;-0.90;98.00
4505;DHT22;2265;48.794;9.520;2023-01-19T07:00:35;-1.10;98.00
4505;DHT22;2265;48.794;9.520;2023-01-19T07:03:04;-1.10;98.00
4505;DHT22;2265;48.794;9.520;2023-01-19T07:05:33;-1.10;98.00
4505;DHT22;2265;48.794;9.520;2023-01-19T07:08:00;-1.20;98.00
4505;DHT22;2265;48.794;9.520;2023-01-19T07:10:27;-1.30;98.00
4505;DHT22;2265;48.794;9.520;2023-01-19T07:12:57;-1.40;98.00
4505;DHT22;2265;48.794;9.520;2023-01-19T07:15:24;-1.40;98.00
4505;DHT22;2265;48.794;9.520;2023-01-19T07:17:51;-1.60;98.00
4505;DHT22;2265;48.794;9.520;2023-01-19T07:20:18;-1.70;98.00
4505;DHT22;2265;48.794;9.520;2023-01-19T07:22:45;-1.70;98.00
4505;DHT22;2265;48.794;9.520;2023-01-19T07:25:14;-1.60;98.00
4505;DHT22;2265;48.794;9.520;2023-01-19T07:27:41;-1.50;98.00
4505;DHT22;2265;48.794;9.520;2023-01-19T07:30:13;-1.50;98.00
4505;DHT22;2265;48.794;9.520;2023-01-19T07:32:41;-1.40;98.00
4505;DHT22;2265;48.794;9.520;2023-01-19T07:35:09;-1.30;98.00
4505;DHT22;2265;48.794;9.520;2023-01-19T07:37:36;-1.30;98.00
4505;DHT22;2265;48.794;9.520;2023-01-19T07:40:04;-1.20;98.00
4505;DHT22;2265;48.794;9.520;2023-01-19T07:42:31;-1.20;98.00
4505;DHT22;2265;48.794;9.520;2023-01-19T07:44:58;-1.10;98.00
4505;DHT22;2265;48.794;9.520;2023-01-19T07:47:27;-1.10;98.00
4505;DHT22;2265;48.794;9.520;2023-01-19T07:49:54;-1.00;98.00
4505;DHT22;2265;48.794;9.520;2023-01-19T07:52:21;-0.90;98.00
4505;DHT22;2265;48.794;9.520;2023-01-19T07:54:49;-0.90;98.00
4505;DHT22;2265;48.794;9.520;2023-01-19T07:57:16;-0.90;98.00
4505;DHT22;2265;48.794;9.520;2023-01-19T07:59:43;-0.90;98.00
4505;DHT22;2265;48.794;9.520;2023-01-19T08:02:10;-0.80;98.00
4505;DHT22;2265;48.794;9.520;2023-01-19T08:04:39;-0.70;98.00
4505;DHT22;2265;48.794;9.520;2023-01-19T08:07:06;-0.70;98.00
4505;DHT22;2265;48.794;9.520;2023-01-19T08:09:34;-0.70;98.00
4505;DHT22;2265;48.794;9.520;2023-01-19T08:12:04;-0.70;98.00
4505;DHT22;2265;48.794;9.520;2023-01-19T08:14:31;-0.50;98.00
4505;DHT22;2265;48.794;9.520;2023-01-19T08:16:59;-0.40;98.00
4505;DHT22;2265;48.794;9.520;2023-01-19T08:19:27;-0.20;98.00
4505;DHT22;2265;48.794;9.520;2023-01-19T08:21:56;-0.20;98.00
4505;DHT22;2265;48.794;9.520;2023-01-19T08:24:24;-0.20;98.00
4505;DHT22;2265;48.794;9.520;2023-01-19T08:26:57;-0.30;98.00
4505;DHT22;2265;48.794;9.520;2023-01-19T08:29:41;-0.30;98.00
4505;DHT22;2265;48.794;9.520;2023-01-19T08:32:08;-0.30;98.00
4505;DHT22;2265;48.794;9.520;2023-01-19T18:47:44;0.90;98.00
4505;DHT22;2265;48.794;9.520;2023-01-19T18:50:12;0.90;98.00
4505;DHT22;2265;48.794;9.520;2023-01-19T18:52:40;0.80;98.00
4505;DHT22;2265;48.794;9.520;2023-01-19T18:55:07;0.70;98.00
4505;DHT22;2265;48.794;9.520;2023-01-19T18:57:36;0.70;98.00
4505;DHT22;2265;48.794;9.520;2023-01-19T19:00:05;0.60;98.00
4505;DHT22;2265;48.794;9.520;2023-01-19T19:02:34;0.60;98.00
4505;DHT22;2265;48.794;9.520;2023-01-19T19:05:04;0.60;98.00
4505;DHT22;2265;48.794;9.520;2023-01-19T19:07:31;0.70;98.00
4505;DHT22;2265;48.794;9.520;2023-01-19T19:09:58;1.00;98.00
4505;DHT22;2265;48.794;9.520;2023-01-19T19:12:26;1.20;98.00
4505;DHT22;2265;48.794;9.520;2023-01-19T19:14:54;1.30;98.00
4505;DHT22;2265;48.794;9.520;2023-01-19T19:17:21;1.20;98.00
4505;DHT22;2265;48.794;9.520;2023-01-19T19:19:52;1.20;98.00
4505;DHT22;2265;48.794;9.520;2023-01-19T19:22:21;1.00;98.00
4505;DHT22;2265;48.794;9.520;2023-01-19T19:24:49;1.00;98.00
4505;DHT22;2265;48.794;9.520;2023-01-19T19:27:16;0.90;98.00
4505;DHT22;2265;48.794;9.520;2023-01-19T19:29:44;0.90;98.00
4505;DHT22;2265;48.794;9.520;2023-01-19T19:32:13;0.80;98.00
4505;DHT22;2265;48.794;9.520;2023-01-19T19:34:47;0.70;98.00
4505;DHT22;2265;48.794;9.520;2023-01-19T19:37:15;0.70;98.00
4505;DHT22;2265;48.794;9.520;2023-01-19T19:39:44;0.70;98.00
4505;DHT22;2265;48.794;9.520;2023-01-19T19:42:11;0.70;98.00
4505;DHT22;2265;48.794;9.520;2023-01-19T19:44:38;0.60;98.00
4505;DHT22;2265;48.794;9.520;2023-01-19T19:47:05;0.60;98.00
4505;DHT22;2265;48.794;9.520;2023-01-19T19:49:32;0.60;98.00
4505;DHT22;2265;48.794;9.520;2023-01-19T19:51:59;0.70;98.00
4505;DHT22;2265;48.794;9.520;2023-01-19T19:54:26;0.70;98.00
4505;DHT22;2265;48.794;9.520;2023-01-19T19:56:55;0.70;98.00
4505;DHT22;2265;48.794;9.520;2023-01-19T19:59:22;0.70;98.00
4505;DHT22;2265;48.794;9.520;2023-01-19T20:01:51;0.60;98.00
4505;DHT22;2265;48.794;9.520;2023-01-19T20:04:19;0.50;98.00
4505;DHT22;2265;48.794;9.520;2023-01-19T20:06:48;0.50;98.00
4505;DHT22;2265;48.794;9.520;2023-01-19T20:09:16;0.60;98.00
4505;DHT22;2265;48.794;9.520;2023-01-19T20:11:44;0.70;98.00
4505;DHT22;2265;48.794;9.520;2023-01-19T20:14:15;0.70;98.00
4505;DHT22;2265;48.794;9.520;2023-01-19T20:16:42;0.80;98.00
4505;DHT22;2265;48.794;9.520;2023-01-19T20:19:09;0.60;98.00
4505;DHT22;2265;48.794;9.520;2023-01-19T20:21:38;0.60;98.00
4505;DHT22;2265;48.794;9.520;2023-01-19T20:24:10;0.50;98.00
4505;DHT22;2265;48.794;9.520;2023-01-19T20:26:40;0.60;98.00
4505;DHT22;2265;48.794;9.520;2023-01-19T20:29:07;0.70;98.00
4505;DHT22;2265;48.794;9.520;2023-01-19T20:31:39;0.80;98.00
4505;DHT22;2265;48.794;9.520;2023-01-19T20:34:09;0.80;98.00
4505;DHT22;2265;48.794;9.520;2023-01-19T20:36:36;0.80;98.00
4505;DHT22;2265;48.794;9.520;2023-01-19T20:39:05;0.80;98.00
4505;DHT22;2265;48.794;9.520;2023-01-19T20:41:37;0.80;98.00
4505;DHT22;2265;48.794;9.520;2023-01-19T20:44:08;0.70;98.00
4505;DHT22;2265;48.794;9.520;2023-01-19T20:46:37;0.60;98.00
4505;DHT22;2265;48.794;9.520;2023-01-19T20:49:05;0.60;98.00
4505;DHT22;2265;48.794;9.520;2023-01-19T20:51:32;0.60;98.00
4505;DHT22;2265;48.794;9.520;2023-01-19T20:54:03;0.60;98.00
4505;DHT22;2265;48.794;9.520;2023-01-19T20:56:30;0.60;98.00
4505;DHT22;2265;48.794;9.520;2023-01-19T20:58:58;0.50;98.00
4505;DHT22;2265;48.794;9.520;2023-01-19T21:01:26;0.50;98.00
4505;DHT22;2265;48.794;9.520;2023-01-19T21:03:55;0.50;98.00
4505;DHT22;2265;48.794;9.520;2023-01-19T21:06:22;0.40;98.00
4505;DHT22;2265;48.794;9.520;2023-01-19T21:08:50;0.40;98.00
4505;DHT22;2265;48.794;9.520;2023-01-19T21:11:18;0.40;98.00
4505;DHT22;2265;48.794;9.520;2023-01-19T21:13:50;0.40;98.00
4505;DHT22;2265;48.794;9.520;2023-01-19T21:16:20;0.40;98.00
4505;DHT22;2265;48.794;9.520;2023-01-19T21:18:48;0.50;98.00
4505;DHT22;2265;48.794;9.520;2023-01-19T21:21:17;0.50;98.00
4505;DHT22;2265;48.794;9.520;2023-01-19T21:23:45;0.60;98.00
4505;DHT22;2265;48.794;9.520;2023-01-19T21:26:13;0.50;98.00
4505;DHT22;2265;48.794;9.520;2023-01-19T21:28:41;0.40;98.00
4505;DHT22;2265;48.794;9.520;2023-01-19T21:31:09;0.50;98.00
4505;DHT22;2265;48.794;9.520;2023-01-19T21:33:43;0.50;98.00
4505;DHT22;2265;48.794;9.520;2023-01-19T21:36:10;0.40;98.00
4505;DHT22;2265;48.794;9.520;2023-01-19T21:38:39;0.40;98.00
4505;DHT22;2265;48.794;9.520;2023-01-19T21:41:07;0.20;98.00
4505;DHT22;2265;48.794;9.520;2023-01-19T21:43:37;0.30;98.00
4505;DHT22;2265;48.794;9.520;2023-01-19T21:46:09;0.40;98.00
4505;DHT22;2265;48.794;9.520;2023-01-19T21:48:37;0.40;98.00
4505;DHT22;2265;48.794;9.520;2023-01-19T21:51:04;0.40;98.00
4505;DHT22;2265;48.794;9.520;2023-01-19T21:53:32;0.40;98.00
4505;DHT22;2265;48.794;9.520;2023-01-19T21:56:00;0.40;98.00
4505;DHT22;2265;48.794;9.520;2023-01-19T21:58:27;0.50;98.00
4505;DHT22;2265;48.794;9.520;2023-01-19T22:00:58;0.60;98.00
4505;DHT22;2265;48.794;9.520;2023-01-19T22:03:26;0.60;98.00
4505;DHT22;2265;48.794;9.520;2023-01-19T22:05:53;0.50;98.00
4505;DHT22;2265;48.794;9.520;2023-01-19T22:08:21;0.50;98.00
4505;DHT22;2265;48.794;9.520;2023-01-19T22:10:48;0.50;98.00
4505;DHT22;2265;48.794;9.520;2023-01-19T22:13:16;0.40;98.00
4505;DHT22;2265;48.794;9.520;2023-01-19T22:15:44;0.40;98.00
4505;DHT22;2265;48.794;9.520;2023-01-19T22:18:11;0.40;98.00
4505;DHT22;2265;48.794;9.520;2023-01-19T22:20:38;0.40;98.00
4505;DHT22;2265;48.794;9.520;2023-01-19T22:23:05;0.40;98.00
4505;DHT22;2265;48.794;9.520;2023-01-19T22:25:32;0.40;98.00
4505;DHT22;2265;48.794;9.520;2023-01-19T22:27:59;0.40;98.00
4505;DHT22;2265;48.794;9.520;2023-01-19T22:30:28;0.40;98.00
4505;DHT22;2265;48.794;9.520;2023-01-19T22:32:55;0.40;98.00
4505;DHT22;2265;48.794;9.520;2023-01-19T22:35:22;0.50;98.00
4505;DHT22;2265;48.794;9.520;2023-01-19T22:37:49;0.50;98.00
4505;DHT22;2265;48.794;9.520;2023-01-19T22:40:17;0.50;98.00
4505;DHT22;2265;48.794;9.520;2023-01-19T22:42:45;0.40;98.00
4505;DHT22;2265;48.794;9.520;2023-01-19T22:45:13;0.30;98.00
4505;DHT22;2265;48.794;9.520;2023-01-19T22:47:41;0.20;98.00
4505;DHT22;2265;48.794;9.520;2023-01-19T22:50:09;0.10;98.00
4505;DHT22;2265;48.794;9.520;2023-01-19T22:52:36;0.20;98.00
4505;DHT22;2265;48.794;9.520;2023-01-19T22:55:04;0.30;98.00
4505;DHT22;2265;48.794;9.520;2023-01-19T22:57:31;0.30;98.00
4505;DHT22;2265;48.794;9.520;2023-01-19T23:00:04;0.40;98.00
4505;DHT22;2265;48.794;9.520;2023-01-19T23:02:31;0.40;98.00
4505;DHT22;2265;48.794;9.520;2023-01-19T23:05:00;0.30;98.00
4505;DHT22;2265;48.794;9.520;2023-01-19T23:07:27;0.40;98.00
4505;DHT22;2265;48.794;9.520;2023-01-19T23:09:54;0.40;98.00
4505;DHT22;2265;48.794;9.520;2023-01-19T23:12:21;0.50;98.00
4505;DHT22;2265;48.794;9.520;2023-01-19T23:14:48;0.60;98.00
4505;DHT22;2265;48.794;9.520;2023-01-19T23:17:15;0.60;98.00
4505;DHT22;2265;48.794;9.520;2023-01-19T23:19:43;0.50;98.00
4505;DHT22;2265;48.794;9.520;2023-01-19T23:22:11;0.50;98.00
4505;DHT22;2265;48.794;9.520;2023-01-19T23:24:38;0.40;98.00
4505;DHT22;2265;48.794;9.520;2023-01-19T23:27:05;0.30;98.00
4505;DHT22;2265;48.794;9.520;2023-01-19T23:29:34;0.20;98.00
4505;DHT22;2265;48.794;9.520;2023-01-19T23:32:01;0.30;98.00
4505;DHT22;2265;48.794;9.520;2023-01-19T23:34:28;0.20;98.00
4505;DHT22;2265;48.794;9.520;2023-01-19T23:36:55;0.10;98.00
4505;DHT22;2265;48.794;9.520;2023-01-19T23:39:25;0.20;98.00
4505;DHT22;2265;48.794;9.520;2023-01-19T23:41:52;0.20;98.00
4505;DHT22;2265;48.794;9.520;2023-01-19T23:44:19;0.20;98.00
4505;DHT22;2265;48.794;9.520;2023-01-19T23:46:46;0.20;98.00
4505;DHT22;2265;48.794;9.520;2023-01-19T23:49:16;0.20;98.00
4505;DHT22;2265;48.794;9.520;2023-01-19T23:51:43;0.20;98.00
4505;DHT22;2265;48.794;9.520;2023-01-19T23:54:10;0.30;98.00
4505;DHT22;2265;48.794;9.520;2023-01-19T23:56:39;0.30;98.00
4505;DHT22;2265;48.794;9.520;2023-01-19T23:59:10;0.30;98.00
